sensor_id;sensor_type;location;lat;lon;timestamp;temperature;humidity
17489;DHT22;8861;52.644;4.734;2022-12-10T00:01:21;1.30;99.90
17489;DHT22;8861;52.644;4.734;2022-12-10T00:03:48;1.30;99.90
17489;DHT22;8861;52.644;4.734;2022-12-10T00:06:19;1.30;99.90
17489;DHT22;8861;52.644;4.734;2022-12-10T00:08:46;1.30;99.90
17489;DHT22;8861;52.644;4.734;2022-12-10T00:11:16;1.30;99.90
17489;DHT22;8861;52.644;4.734;2022-12-10T00:13:44;1.30;99.90
17489;DHT22;8861;52.644;4.734;2022-12-10T00:16:13;1.30;99.90
17489;DHT22;8861;52.644;4.734;2022-12-10T00:18:40;1.30;99.90
17489;DHT22;8861;52.644;4.734;2022-12-10T00:21:09;1.30;99.90
17489;DHT22;8861;52.644;4.734;2022-12-10T00:23:37;1.30;99.90
17489;DHT22;8861;52.644;4.734;2022-12-10T00:26:04;1.30;99.90
17489;DHT22;8861;52.644;4.734;2022-12-10T00:28:33;1.40;99.90
17489;DHT22;8861;52.644;4.734;2022-12-10T00:31:04;1.40;99.90
17489;DHT22;8861;52.644;4.734;2022-12-10T00:33:31;1.40;99.90
17489;DHT22;8861;52.644;4.734;2022-12-10T00:36:01;1.40;99.90
17489;DHT22;8861;52.644;4.734;2022-12-10T00:38:29;1.40;99.90
17489;DHT22;8861;52.644;4.734;2022-12-10T00:40:56;1.40;99.90
17489;DHT22;8861;52.644;4.734;2022-12-10T00:43:22;1.50;99.90
17489;DHT22;8861;52.644;4.734;2022-12-10T00:45:51;1.40;99.90
17489;DHT22;8861;52.644;4.734;2022-12-10T00:48:19;1.50;99.90
17489;DHT22;8861;52.644;4.734;2022-12-10T00:50:55;1.50;99.90
17489;DHT22;8861;52.644;4.734;2022-12-10T00:53:23;1.50;99.90
17489;DHT22;8861;52.644;4.734;2022-12-10T00:55:50;1.40;99.90
17489;DHT22;8861;52.644;4.734;2022-12-10T00:58:17;1.40;99.90
17489;DHT22;8861;52.644;4.734;2022-12-10T01:00:44;1.40;99.90
17489;DHT22;8861;52.644;4.734;2022-12-10T01:03:12;1.40;99.90
17489;DHT22;8861;52.644;4.734;2022-12-10T01:05:39;1.40;99.90
17489;DHT22;8861;52.644;4.734;2022-12-10T01:08:06;1.40;99.90
17489;DHT22;8861;52.644;4.734;2022-12-10T01:10:33;1.50;99.90
17489;DHT22;8861;52.644;4.734;2022-12-10T01:13:00;1.60;99.90
17489;DHT22;8861;52.644;4.734;2022-12-10T01:15:27;1.60;99.90
17489;DHT22;8861;52.644;4.734;2022-12-10T01:17:54;1.70;99.90
17489;DHT22;8861;52.644;4.734;2022-12-10T01:20:23;1.70;99.90
17489;DHT22;8861;52.644;4.734;2022-12-10T01:22:50;1.80;99.90
17489;DHT22;8861;52.644;4.734;2022-12-10T01:25:17;1.90;99.90
17489;DHT22;8861;52.644;4.734;2022-12-10T01:27:43;2.00;99.90
17489;DHT22;8861;52.644;4.734;2022-12-10T01:30:11;2.10;99.90
17489;DHT22;8861;52.644;4.734;2022-12-10T01:32:38;2.20;99.90
17489;DHT22;8861;52.644;4.734;2022-12-10T01:35:05;2.20;99.90
17489;DHT22;8861;52.644;4.734;2022-12-10T01:37:34;2.20;99.90
17489;DHT22;8861;52.644;4.734;2022-12-10T01:40:01;2.30;99.90
17489;DHT22;8861;52.644;4.734;2022-12-10T01:42:28;2.30;99.90
17489;DHT22;8861;52.644;4.734;2022-12-10T01:45:09;2.30;99.90
17489;DHT22;8861;52.644;4.734;2022-12-10T01:47:36;2.30;99.90
17489;DHT22;8861;52.644;4.734;2022-12-10T01:50:05;2.40;99.90
17489;DHT22;8861;52.644;4.734;2022-12-10T01:52:35;2.40;99.90
17489;DHT22;8861;52.644;4.734;2022-12-10T01:55:08;2.30;99.90
17489;DHT22;8861;52.644;4.734;2022-12-10T01:57:35;2.20;99.90
17489;DHT22;8861;52.644;4.734;2022-12-10T02:00:05;2.20;99.90
17489;DHT22;8861;52.644;4.734;2022-12-10T02:02:42;2.10;99.90
17489;DHT22;8861;52.644;4.734;2022-12-10T02:05:20;2.10;99.90
17489;DHT22;8861;52.644;4.734;2022-12-10T02:07:59;2.10;99.90
17489;DHT22;8861;52.644;4.734;2022-12-10T02:10:38;2.10;99.90
17489;DHT22;8861;52.644;4.734;2022-12-10T02:13:12;2.20;99.90
17489;DHT22;8861;52.644;4.734;2022-12-10T02:15:44;2.30;99.90
17489;DHT22;8861;52.644;4.734;2022-12-10T02:18:16;2.30;99.90
17489;DHT22;8861;52.644;4.734;2022-12-10T02:20:47;2.30;99.90
17489;DHT22;8861;52.644;4.734;2022-12-10T02:23:22;2.40;99.90
17489;DHT22;8861;52.644;4.734;2022-12-10T02:25:59;2.40;99.90
17489;DHT22;8861;52.644;4.734;2022-12-10T02:28:33;2.50;99.90
17489;DHT22;8861;52.644;4.734;2022-12-10T02:31:05;2.50;99.90
17489;DHT22;8861;52.644;4.734;2022-12-10T02:33:37;2.50;99.90
17489;DHT22;8861;52.644;4.734;2022-12-10T02:36:07;2.50;99.90
17489;DHT22;8861;52.644;4.734;2022-12-10T02:38:37;2.50;99.90
17489;DHT22;8861;52.644;4.734;2022-12-10T02:41:10;2.50;99.90
17489;DHT22;8861;52.644;4.734;2022-12-10T02:43:40;2.50;99.90
17489;DHT22;8861;52.644;4.734;2022-12-10T02:46:09;2.50;99.90
17489;DHT22;8861;52.644;4.734;2022-12-10T02:48:36;2.60;99.90
17489;DHT22;8861;52.644;4.734;2022-12-10T02:51:03;2.60;99.90
17489;DHT22;8861;52.644;4.734;2022-12-10T02:53:30;2.60;99.90
17489;DHT22;8861;52.644;4.734;2022-12-10T02:56:11;2.60;99.90
17489;DHT22;8861;52.644;4.734;2022-12-10T02:58:46;2.60;99.90
17489;DHT22;8861;52.644;4.734;2022-12-10T03:01:23;2.60;99.90
17489;DHT22;8861;52.644;4.734;2022-12-10T03:03:56;2.60;99.90
17489;DHT22;8861;52.644;4.734;2022-12-10T03:06:31;2.60;99.90
17489;DHT22;8861;52.644;4.734;2022-12-10T03:09:04;2.60;99.90
17489;DHT22;8861;52.644;4.734;2022-12-10T03:11:32;2.60;99.90
17489;DHT22;8861;52.644;4.734;2022-12-10T03:14:02;2.60;99.90
17489;DHT22;8861;52.644;4.734;2022-12-10T03:16:36;2.60;99.90
17489;DHT22;8861;52.644;4.734;2022-12-10T03:19:06;2.60;99.90
17489;DHT22;8861;52.644;4.734;2022-12-10T03:21:35;2.60;99.90
17489;DHT22;8861;52.644;4.734;2022-12-10T03:24:04;2.60;99.90
17489;DHT22;8861;52.644;4.734;2022-12-10T03:26:32;2.60;99.90
17489;DHT22;8861;52.644;4.734;2022-12-10T03:29:03;2.60;99.90
17489;DHT22;8861;52.644;4.734;2022-12-10T03:31:34;2.60;99.90
17489;DHT22;8861;52.644;4.734;2022-12-10T03:34:02;2.60;99.90
17489;DHT22;8861;52.644;4.734;2022-12-10T03:36:29;2.60;99.90
17489;DHT22;8861;52.644;4.734;2022-12-10T03:38:57;2.60;99.90
17489;DHT22;8861;52.644;4.734;2022-12-10T03:41:25;2.60;99.90
17489;DHT22;8861;52.644;4.734;2022-12-10T03:43:54;2.60;99.90
17489;DHT22;8861;52.644;4.734;2022-12-10T03:46:22;2.60;99.90
17489;DHT22;8861;52.644;4.734;2022-12-10T03:48:50;2.60;99.90
17489;DHT22;8861;52.644;4.734;2022-12-10T03:51:18;2.60;99.90
17489;DHT22;8861;52.644;4.734;2022-12-10T03:53:45;2.70;99.90
17489;DHT22;8861;52.644;4.734;2022-12-10T03:56:14;2.70;99.90
17489;DHT22;8861;52.644;4.734;2022-12-10T03:58:41;2.70;99.90
17489;DHT22;8861;52.644;4.734;2022-12-10T04:01:08;2.80;99.90
17489;DHT22;8861;52.644;4.734;2022-12-10T04:03:35;2.80;99.90
17489;DHT22;8861;52.644;4.734;2022-12-10T04:06:05;2.80;99.90
17489;DHT22;8861;52.644;4.734;2022-12-10T04:08:33;2.80;99.90
17489;DHT22;8861;52.644;4.734;2022-12-10T04:11:04;2.80;99.90
17489;DHT22;8861;52.644;4.734;2022-12-10T04:13:32;2.80;99.90
17489;DHT22;8861;52.644;4.734;2022-12-10T04:16:17;2.80;99.90
17489;DHT22;8861;52.644;4.734;2022-12-10T04:18:53;2.90;99.90
17489;DHT22;8861;52.644;4.734;2022-12-10T04:21:22;2.90;99.90
17489;DHT22;8861;52.644;4.734;2022-12-10T04:24:08;2.90;99.90
17489;DHT22;8861;52.644;4.734;2022-12-10T04:26:53;2.90;99.90
17489;DHT22;8861;52.644;4.734;2022-12-10T04:29:22;2.90;99.90
17489;DHT22;8861;52.644;4.734;2022-12-10T04:31:49;2.90;99.90
17489;DHT22;8861;52.644;4.734;2022-12-10T04:34:17;2.90;99.90
17489;DHT22;8861;52.644;4.734;2022-12-10T04:36:45;3.00;99.90
17489;DHT22;8861;52.644;4.734;2022-12-10T04:39:13;3.00;99.90
17489;DHT22;8861;52.644;4.734;2022-12-10T04:41:40;3.00;99.90
17489;DHT22;8861;52.644;4.734;2022-12-10T04:44:08;3.00;99.90
17489;DHT22;8861;52.644;4.734;2022-12-10T04:46:35;3.10;99.90
17489;DHT22;8861;52.644;4.734;2022-12-10T04:49:03;3.10;99.90
17489;DHT22;8861;52.644;4.734;2022-12-10T04:51:30;3.10;99.90
17489;DHT22;8861;52.644;4.734;2022-12-10T04:53:59;3.10;99.90
17489;DHT22;8861;52.644;4.734;2022-12-10T04:56:26;3.10;99.90
17489;DHT22;8861;52.644;4.734;2022-12-10T04:58:55;3.10;99.90
17489;DHT22;8861;52.644;4.734;2022-12-10T05:01:22;3.00;99.90
17489;DHT22;8861;52.644;4.734;2022-12-10T05:03:49;3.00;99.90
17489;DHT22;8861;52.644;4.734;2022-12-10T05:06:18;3.10;99.90
17489;DHT22;8861;52.644;4.734;2022-12-10T05:08:45;3.10;99.90
17489;DHT22;8861;52.644;4.734;2022-12-10T05:11:15;3.10;99.90
17489;DHT22;8861;52.644;4.734;2022-12-10T05:13:43;3.00;99.90
17489;DHT22;8861;52.644;4.734;2022-12-10T05:16:12;3.00;99.90
17489;DHT22;8861;52.644;4.734;2022-12-10T05:18:39;3.00;99.90
17489;DHT22;8861;52.644;4.734;2022-12-10T05:21:09;3.00;99.90
17489;DHT22;8861;52.644;4.734;2022-12-10T05:23:37;3.00;99.90
17489;DHT22;8861;52.644;4.734;2022-12-10T05:26:05;3.00;99.90
17489;DHT22;8861;52.644;4.734;2022-12-10T05:28:35;3.00;99.90
17489;DHT22;8861;52.644;4.734;2022-12-10T05:31:03;3.00;99.90
17489;DHT22;8861;52.644;4.734;2022-12-10T05:33:30;3.00;99.90
17489;DHT22;8861;52.644;4.734;2022-12-10T05:35:59;3.00;99.90
17489;DHT22;8861;52.644;4.734;2022-12-10T05:38:28;3.00;99.90
17489;DHT22;8861;52.644;4.734;2022-12-10T05:40:55;3.00;99.90
17489;DHT22;8861;52.644;4.734;2022-12-10T05:43:22;3.00;99.90
17489;DHT22;8861;52.644;4.734;2022-12-10T05:45:50;3.00;99.90
17489;DHT22;8861;52.644;4.734;2022-12-10T05:48:17;2.90;99.90
17489;DHT22;8861;52.644;4.734;2022-12-10T05:50:44;2.90;99.90
17489;DHT22;8861;52.644;4.734;2022-12-10T05:53:12;2.80;99.90
17489;DHT22;8861;52.644;4.734;2022-12-10T05:55:43;2.80;99.90
17489;DHT22;8861;52.644;4.734;2022-12-10T05:58:10;2.70;99.90
17489;DHT22;8861;52.644;4.734;2022-12-10T06:00:38;2.70;99.90
17489;DHT22;8861;52.644;4.734;2022-12-10T06:03:08;2.70;99.90
17489;DHT22;8861;52.644;4.734;2022-12-10T06:05:36;2.70;99.90
17489;DHT22;8861;52.644;4.734;2022-12-10T06:08:04;2.70;99.90
17489;DHT22;8861;52.644;4.734;2022-12-10T06:10:33;2.70;99.90
17489;DHT22;8861;52.644;4.734;2022-12-10T06:13:00;2.70;99.90
17489;DHT22;8861;52.644;4.734;2022-12-10T06:15:27;2.70;99.90
17489;DHT22;8861;52.644;4.734;2022-12-10T06:17:54;2.70;99.90
17489;DHT22;8861;52.644;4.734;2022-12-10T06:20:23;2.70;99.90
17489;DHT22;8861;52.644;4.734;2022-12-10T06:22:50;2.60;99.90
17489;DHT22;8861;52.644;4.734;2022-12-10T06:25:17;2.60;99.90
17489;DHT22;8861;52.644;4.734;2022-12-10T06:27:44;2.60;99.90
17489;DHT22;8861;52.644;4.734;2022-12-10T06:30:11;2.60;99.90
17489;DHT22;8861;52.644;4.734;2022-12-10T06:32:38;2.60;99.90
17489;DHT22;8861;52.644;4.734;2022-12-10T06:35:08;2.60;99.90
17489;DHT22;8861;52.644;4.734;2022-12-10T06:37:37;2.60;99.90
17489;DHT22;8861;52.644;4.734;2022-12-10T06:40:05;2.70;99.90
17489;DHT22;8861;52.644;4.734;2022-12-10T06:42:32;2.70;99.90
17489;DHT22;8861;52.644;4.734;2022-12-10T06:44:59;2.70;99.90
17489;DHT22;8861;52.644;4.734;2022-12-10T06:47:26;2.80;99.90
17489;DHT22;8861;52.644;4.734;2022-12-10T06:49:53;2.80;99.90
17489;DHT22;8861;52.644;4.734;2022-12-10T06:52:20;2.80;99.90
17489;DHT22;8861;52.644;4.734;2022-12-10T06:54:48;2.80;99.90
17489;DHT22;8861;52.644;4.734;2022-12-10T06:57:15;2.80;99.90
17489;DHT22;8861;52.644;4.734;2022-12-10T06:59:43;2.80;99.90
17489;DHT22;8861;52.644;4.734;2022-12-10T07:02:10;2.80;99.90
17489;DHT22;8861;52.644;4.734;2022-12-10T07:04:37;2.80;99.90
17489;DHT22;8861;52.644;4.734;2022-12-10T07:07:05;2.80;99.90
17489;DHT22;8861;52.644;4.734;2022-12-10T07:09:32;2.80;99.90
17489;DHT22;8861;52.644;4.734;2022-12-10T07:12:01;2.80;99.90
17489;DHT22;8861;52.644;4.734;2022-12-10T07:14:28;2.80;99.90
17489;DHT22;8861;52.644;4.734;2022-12-10T07:16:55;2.80;99.90
17489;DHT22;8861;52.644;4.734;2022-12-10T07:19:22;2.70;99.90
17489;DHT22;8861;52.644;4.734;2022-12-10T07:21:49;2.70;99.90
17489;DHT22;8861;52.644;4.734;2022-12-10T07:24:18;2.70;99.90
17489;DHT22;8861;52.644;4.734;2022-12-10T07:26:45;2.60;99.90
17489;DHT22;8861;52.644;4.734;2022-12-10T07:29:16;2.60;99.90
17489;DHT22;8861;52.644;4.734;2022-12-10T07:31:44;2.50;99.90
17489;DHT22;8861;52.644;4.734;2022-12-10T07:34:12;2.50;99.90
17489;DHT22;8861;52.644;4.734;2022-12-10T07:36:39;2.40;99.90
17489;DHT22;8861;52.644;4.734;2022-12-10T07:39:08;2.40;99.90
17489;DHT22;8861;52.644;4.734;2022-12-10T07:41:35;2.30;99.90
17489;DHT22;8861;52.644;4.734;2022-12-10T07:44:03;2.20;99.90
17489;DHT22;8861;52.644;4.734;2022-12-10T07:46:33;2.20;99.90
17489;DHT22;8861;52.644;4.734;2022-12-10T07:49:01;2.20;99.90
17489;DHT22;8861;52.644;4.734;2022-12-10T07:51:29;2.10;99.90
17489;DHT22;8861;52.644;4.734;2022-12-10T07:53:56;2.10;99.90
17489;DHT22;8861;52.644;4.734;2022-12-10T07:56:24;2.00;99.90
17489;DHT22;8861;52.644;4.734;2022-12-10T07:58:51;2.00;99.90
17489;DHT22;8861;52.644;4.734;2022-12-10T08:01:21;1.90;99.90
17489;DHT22;8861;52.644;4.734;2022-12-10T08:03:51;1.80;99.90
17489;DHT22;8861;52.644;4.734;2022-12-10T08:06:20;1.80;99.90
17489;DHT22;8861;52.644;4.734;2022-12-10T08:08:48;1.90;99.90
17489;DHT22;8861;52.644;4.734;2022-12-10T08:11:17;1.80;99.90
17489;DHT22;8861;52.644;4.734;2022-12-10T08:13:45;1.80;99.90
17489;DHT22;8861;52.644;4.734;2022-12-10T08:16:14;1.80;99.90
17489;DHT22;8861;52.644;4.734;2022-12-10T08:18:41;1.70;99.90
17489;DHT22;8861;52.644;4.734;2022-12-10T08:21:12;1.80;99.90
17489;DHT22;8861;52.644;4.734;2022-12-10T08:23:39;1.80;99.90
17489;DHT22;8861;52.644;4.734;2022-12-10T08:26:08;1.80;99.90
17489;DHT22;8861;52.644;4.734;2022-12-10T08:28:36;1.80;99.90
17489;DHT22;8861;52.644;4.734;2022-12-10T08:31:04;1.80;99.90
17489;DHT22;8861;52.644;4.734;2022-12-10T08:33:32;1.80;99.90
17489;DHT22;8861;52.644;4.734;2022-12-10T08:36:01;1.80;99.90
17489;DHT22;8861;52.644;4.734;2022-12-10T08:38:30;1.90;99.90
17489;DHT22;8861;52.644;4.734;2022-12-10T08:40:57;1.90;99.90
17489;DHT22;8861;52.644;4.734;2022-12-10T08:43:25;1.90;99.90
17489;DHT22;8861;52.644;4.734;2022-12-10T08:45:52;2.00;99.90
17489;DHT22;8861;52.644;4.734;2022-12-10T08:48:19;1.90;99.90
17489;DHT22;8861;52.644;4.734;2022-12-10T08:50:46;2.00;99.90
17489;DHT22;8861;52.644;4.734;2022-12-10T08:53:13;2.00;99.90
17489;DHT22;8861;52.644;4.734;2022-12-10T08:55:42;1.90;99.90
17489;DHT22;8861;52.644;4.734;2022-12-10T08:58:09;2.00;99.90
17489;DHT22;8861;52.644;4.734;2022-12-10T09:00:36;2.00;99.90
17489;DHT22;8861;52.644;4.734;2022-12-10T09:03:04;2.00;99.90
17489;DHT22;8861;52.644;4.734;2022-12-10T09:05:30;2.00;99.90
17489;DHT22;8861;52.644;4.734;2022-12-10T09:07:57;2.00;99.90
17489;DHT22;8861;52.644;4.734;2022-12-10T09:10:24;2.00;99.90
17489;DHT22;8861;52.644;4.734;2022-12-10T09:12:53;2.00;99.90
17489;DHT22;8861;52.644;4.734;2022-12-10T09:15:20;2.00;99.90
17489;DHT22;8861;52.644;4.734;2022-12-10T09:17:47;2.10;99.90
17489;DHT22;8861;52.644;4.734;2022-12-10T09:20:14;2.00;99.90
17489;DHT22;8861;52.644;4.734;2022-12-10T09:22:41;2.10;99.90
17489;DHT22;8861;52.644;4.734;2022-12-10T09:25:08;2.10;99.90
17489;DHT22;8861;52.644;4.734;2022-12-10T09:27:36;2.10;99.90
17489;DHT22;8861;52.644;4.734;2022-12-10T09:30:06;2.10;99.90
17489;DHT22;8861;52.644;4.734;2022-12-10T09:32:33;2.20;99.90
17489;DHT22;8861;52.644;4.734;2022-12-10T09:35:00;2.20;99.90
17489;DHT22;8861;52.644;4.734;2022-12-10T09:37:27;2.20;99.90
17489;DHT22;8861;52.644;4.734;2022-12-10T09:39:54;2.30;99.90
17489;DHT22;8861;52.644;4.734;2022-12-10T09:42:33;2.40;99.90
17489;DHT22;8861;52.644;4.734;2022-12-10T09:45:09;2.40;99.90
17489;DHT22;8861;52.644;4.734;2022-12-10T09:47:43;2.40;99.90
17489;DHT22;8861;52.644;4.734;2022-12-10T09:50:18;2.50;99.90
17489;DHT22;8861;52.644;4.734;2022-12-10T09:52:47;2.50;99.90
17489;DHT22;8861;52.644;4.734;2022-12-10T09:55:20;2.50;99.90
17489;DHT22;8861;52.644;4.734;2022-12-10T09:57:49;2.50;99.90
17489;DHT22;8861;52.644;4.734;2022-12-10T10:00:26;2.50;99.90
17489;DHT22;8861;52.644;4.734;2022-12-10T10:02:57;2.60;99.90
17489;DHT22;8861;52.644;4.734;2022-12-10T10:05:27;2.60;99.90
17489;DHT22;8861;52.644;4.734;2022-12-10T10:07:56;2.60;99.90
17489;DHT22;8861;52.644;4.734;2022-12-10T10:10:27;2.70;99.90
17489;DHT22;8861;52.644;4.734;2022-12-10T10:12:57;2.70;99.90
17489;DHT22;8861;52.644;4.734;2022-12-10T10:15:31;2.60;99.90
17489;DHT22;8861;52.644;4.734;2022-12-10T10:18:02;2.70;99.90
17489;DHT22;8861;52.644;4.734;2022-12-10T10:20:31;2.70;99.90
17489;DHT22;8861;52.644;4.734;2022-12-10T10:22:59;2.70;99.90
17489;DHT22;8861;52.644;4.734;2022-12-10T10:25:27;2.80;99.90
17489;DHT22;8861;52.644;4.734;2022-12-10T10:27:54;2.70;99.90
17489;DHT22;8861;52.644;4.734;2022-12-10T10:30:22;2.70;99.90
17489;DHT22;8861;52.644;4.734;2022-12-10T10:32:52;2.70;99.90
17489;DHT22;8861;52.644;4.734;2022-12-10T10:35:22;2.70;99.90
17489;DHT22;8861;52.644;4.734;2022-12-10T10:37:50;2.70;99.90
17489;DHT22;8861;52.644;4.734;2022-12-10T10:40:22;2.70;99.90
17489;DHT22;8861;52.644;4.734;2022-12-10T10:42:52;2.80;99.90
17489;DHT22;8861;52.644;4.734;2022-12-10T10:45:39;2.80;99.90
17489;DHT22;8861;52.644;4.734;2022-12-10T10:48:13;2.90;99.90
17489;DHT22;8861;52.644;4.734;2022-12-10T10:50:44;2.90;99.90
17489;DHT22;8861;52.644;4.734;2022-12-10T10:53:30;2.90;99.90
17489;DHT22;8861;52.644;4.734;2022-12-10T10:56:09;2.90;99.90
17489;DHT22;8861;52.644;4.734;2022-12-10T10:58:56;2.90;99.90
17489;DHT22;8861;52.644;4.734;2022-12-10T11:01:25;2.90;99.90
17489;DHT22;8861;52.644;4.734;2022-12-10T11:03:57;3.00;99.90
17489;DHT22;8861;52.644;4.734;2022-12-10T11:06:24;3.00;99.90
17489;DHT22;8861;52.644;4.734;2022-12-10T11:08:55;3.00;99.90
17489;DHT22;8861;52.644;4.734;2022-12-10T11:11:32;3.10;99.90
17489;DHT22;8861;52.644;4.734;2022-12-10T11:14:13;3.10;99.90
17489;DHT22;8861;52.644;4.734;2022-12-10T11:16:41;3.10;99.90
17489;DHT22;8861;52.644;4.734;2022-12-10T11:19:19;3.10;99.90
17489;DHT22;8861;52.644;4.734;2022-12-10T11:21:47;3.10;99.90
17489;DHT22;8861;52.644;4.734;2022-12-10T11:24:17;3.10;99.90
17489;DHT22;8861;52.644;4.734;2022-12-10T11:26:59;3.10;99.90
17489;DHT22;8861;52.644;4.734;2022-12-10T11:29:45;3.10;99.90
17489;DHT22;8861;52.644;4.734;2022-12-10T11:32:26;3.20;99.90
17489;DHT22;8861;52.644;4.734;2022-12-10T11:35:05;3.30;99.90
17489;DHT22;8861;52.644;4.734;2022-12-10T11:37:39;3.30;99.90
17489;DHT22;8861;52.644;4.734;2022-12-10T11:40:19;3.30;99.90
17489;DHT22;8861;52.644;4.734;2022-12-10T11:43:01;3.20;99.90
17489;DHT22;8861;52.644;4.734;2022-12-10T11:45:48;3.20;99.90
17489;DHT22;8861;52.644;4.734;2022-12-10T11:48:29;3.20;99.90
17489;DHT22;8861;52.644;4.734;2022-12-10T11:51:03;3.30;99.90
17489;DHT22;8861;52.644;4.734;2022-12-10T11:53:48;3.30;99.90
17489;DHT22;8861;52.644;4.734;2022-12-10T11:56:21;3.30;99.90
17489;DHT22;8861;52.644;4.734;2022-12-10T11:58:58;3.40;99.90
17489;DHT22;8861;52.644;4.734;2022-12-10T12:01:39;3.60;99.90
17489;DHT22;8861;52.644;4.734;2022-12-10T12:04:23;3.70;99.90
17489;DHT22;8861;52.644;4.734;2022-12-10T12:07:29;3.80;99.90
17489;DHT22;8861;52.644;4.734;2022-12-10T12:10:17;3.80;99.90
17489;DHT22;8861;52.644;4.734;2022-12-10T12:12:49;3.70;99.90
17489;DHT22;8861;52.644;4.734;2022-12-10T12:15:23;3.70;99.90
17489;DHT22;8861;52.644;4.734;2022-12-10T12:17:55;3.70;99.90
17489;DHT22;8861;52.644;4.734;2022-12-10T12:20:27;3.70;99.90
17489;DHT22;8861;52.644;4.734;2022-12-10T12:23:00;3.60;99.90
17489;DHT22;8861;52.644;4.734;2022-12-10T12:25:32;3.60;99.90
17489;DHT22;8861;52.644;4.734;2022-12-10T12:28:06;3.70;99.90
17489;DHT22;8861;52.644;4.734;2022-12-10T12:30:39;3.70;99.90
17489;DHT22;8861;52.644;4.734;2022-12-10T12:33:12;3.80;99.90
17489;DHT22;8861;52.644;4.734;2022-12-10T12:35:43;3.80;99.90
17489;DHT22;8861;52.644;4.734;2022-12-10T12:38:23;4.00;99.90
17489;DHT22;8861;52.644;4.734;2022-12-10T12:40:57;4.00;99.90
17489;DHT22;8861;52.644;4.734;2022-12-10T12:43:37;4.10;99.90
17489;DHT22;8861;52.644;4.734;2022-12-10T12:46:11;4.20;99.90
17489;DHT22;8861;52.644;4.734;2022-12-10T12:48:42;4.10;99.90
17489;DHT22;8861;52.644;4.734;2022-12-10T12:51:16;4.20;99.90
17489;DHT22;8861;52.644;4.734;2022-12-10T12:53:45;4.10;99.90
17489;DHT22;8861;52.644;4.734;2022-12-10T12:56:22;4.10;99.90
17489;DHT22;8861;52.644;4.734;2022-12-10T12:59:01;4.00;99.90
17489;DHT22;8861;52.644;4.734;2022-12-10T13:01:33;3.80;99.90
17489;DHT22;8861;52.644;4.734;2022-12-10T13:04:01;3.80;99.90
17489;DHT22;8861;52.644;4.734;2022-12-10T13:06:31;3.70;99.90
17489;DHT22;8861;52.644;4.734;2022-12-10T13:09:17;3.70;99.90
17489;DHT22;8861;52.644;4.734;2022-12-10T13:12:17;3.60;99.90
17489;DHT22;8861;52.644;4.734;2022-12-10T13:15:00;3.50;99.90
17489;DHT22;8861;52.644;4.734;2022-12-10T13:17:31;3.40;99.90
17489;DHT22;8861;52.644;4.734;2022-12-10T13:20:31;3.30;99.90
17489;DHT22;8861;52.644;4.734;2022-12-10T13:22:59;3.20;99.90
17489;DHT22;8861;52.644;4.734;2022-12-10T13:25:57;3.20;99.90
17489;DHT22;8861;52.644;4.734;2022-12-10T13:28:38;3.20;99.90
17489;DHT22;8861;52.644;4.734;2022-12-10T13:31:18;3.20;99.90
17489;DHT22;8861;52.644;4.734;2022-12-10T13:33:48;3.20;99.90
17489;DHT22;8861;52.644;4.734;2022-12-10T13:36:21;3.30;99.90
17489;DHT22;8861;52.644;4.734;2022-12-10T13:39:11;3.20;99.90
17489;DHT22;8861;52.644;4.734;2022-12-10T13:44:50;3.10;99.90
17489;DHT22;8861;52.644;4.734;2022-12-10T13:47:25;3.10;99.90
17489;DHT22;8861;52.644;4.734;2022-12-10T13:49:53;3.20;99.90
17489;DHT22;8861;52.644;4.734;2022-12-10T13:52:26;3.10;99.90
17489;DHT22;8861;52.644;4.734;2022-12-10T13:55:04;3.10;99.90
17489;DHT22;8861;52.644;4.734;2022-12-10T13:57:46;3.10;99.90
17489;DHT22;8861;52.644;4.734;2022-12-10T14:00:18;3.10;99.90
17489;DHT22;8861;52.644;4.734;2022-12-10T14:06:12;2.90;99.90
17489;DHT22;8861;52.644;4.734;2022-12-10T14:08:41;2.90;99.90
17489;DHT22;8861;52.644;4.734;2022-12-10T14:11:15;2.80;99.90
17489;DHT22;8861;52.644;4.734;2022-12-10T14:13:49;2.80;99.90
17489;DHT22;8861;52.644;4.734;2022-12-10T14:16:21;2.70;99.90
17489;DHT22;8861;52.644;4.734;2022-12-10T14:18:53;2.70;99.90
17489;DHT22;8861;52.644;4.734;2022-12-10T14:21:21;2.70;99.90
17489;DHT22;8861;52.644;4.734;2022-12-10T14:23:51;2.70;99.90
17489;DHT22;8861;52.644;4.734;2022-12-10T14:26:20;2.70;99.90
17489;DHT22;8861;52.644;4.734;2022-12-10T14:28:49;2.60;99.90
17489;DHT22;8861;52.644;4.734;2022-12-10T14:31:18;2.60;99.90
17489;DHT22;8861;52.644;4.734;2022-12-10T14:33:49;2.60;99.90
17489;DHT22;8861;52.644;4.734;2022-12-10T14:36:21;2.60;99.90
17489;DHT22;8861;52.644;4.734;2022-12-10T14:38:51;2.50;99.90
17489;DHT22;8861;52.644;4.734;2022-12-10T14:41:22;2.50;99.90
17489;DHT22;8861;52.644;4.734;2022-12-10T14:43:51;2.50;99.90
17489;DHT22;8861;52.644;4.734;2022-12-10T14:46:21;2.50;99.90
17489;DHT22;8861;52.644;4.734;2022-12-10T14:48:50;2.50;99.90
17489;DHT22;8861;52.644;4.734;2022-12-10T14:51:19;2.50;99.90
17489;DHT22;8861;52.644;4.734;2022-12-10T14:53:48;2.50;99.90
17489;DHT22;8861;52.644;4.734;2022-12-10T14:56:21;2.50;99.90
17489;DHT22;8861;52.644;4.734;2022-12-10T14:58:52;2.40;99.90
17489;DHT22;8861;52.644;4.734;2022-12-10T15:01:27;2.50;99.90
17489;DHT22;8861;52.644;4.734;2022-12-10T15:03:57;2.50;99.90
17489;DHT22;8861;52.644;4.734;2022-12-10T15:06:25;2.40;99.90
17489;DHT22;8861;52.644;4.734;2022-12-10T15:08:55;2.40;99.90
17489;DHT22;8861;52.644;4.734;2022-12-10T15:11:24;2.30;99.90
17489;DHT22;8861;52.644;4.734;2022-12-10T15:13:55;2.40;99.90
17489;DHT22;8861;52.644;4.734;2022-12-10T15:16:29;2.30;99.90
17489;DHT22;8861;52.644;4.734;2022-12-10T15:19:07;2.20;99.90
17489;DHT22;8861;52.644;4.734;2022-12-10T15:21:41;2.30;99.90
17489;DHT22;8861;52.644;4.734;2022-12-10T15:24:15;2.20;99.90
17489;DHT22;8861;52.644;4.734;2022-12-10T15:26:44;2.30;99.90
17489;DHT22;8861;52.644;4.734;2022-12-10T15:29:35;2.30;99.90
17489;DHT22;8861;52.644;4.734;2022-12-10T15:32:06;2.30;99.90
17489;DHT22;8861;52.644;4.734;2022-12-10T15:34:42;2.30;99.90
17489;DHT22;8861;52.644;4.734;2022-12-10T15:37:20;2.30;99.90
17489;DHT22;8861;52.644;4.734;2022-12-10T15:39:51;2.30;99.90
17489;DHT22;8861;52.644;4.734;2022-12-10T15:42:31;2.40;99.90
17489;DHT22;8861;52.644;4.734;2022-12-10T15:45:12;2.30;99.90
17489;DHT22;8861;52.644;4.734;2022-12-10T15:47:41;2.30;99.90
17489;DHT22;8861;52.644;4.734;2022-12-10T15:50:10;2.30;99.90
17489;DHT22;8861;52.644;4.734;2022-12-10T15:52:37;2.30;99.90
17489;DHT22;8861;52.644;4.734;2022-12-10T15:55:05;2.40;99.90
17489;DHT22;8861;52.644;4.734;2022-12-10T15:57:33;2.40;99.90
17489;DHT22;8861;52.644;4.734;2022-12-10T16:00:04;2.30;99.90
17489;DHT22;8861;52.644;4.734;2022-12-10T16:02:37;2.40;99.90
17489;DHT22;8861;52.644;4.734;2022-12-10T16:05:11;2.30;99.90
17489;DHT22;8861;52.644;4.734;2022-12-10T16:07:38;2.30;99.90
17489;DHT22;8861;52.644;4.734;2022-12-10T16:10:06;2.30;99.90
17489;DHT22;8861;52.644;4.734;2022-12-10T16:12:35;2.30;99.90
17489;DHT22;8861;52.644;4.734;2022-12-10T16:15:05;2.40;99.90
17489;DHT22;8861;52.644;4.734;2022-12-10T16:17:33;2.40;99.90
17489;DHT22;8861;52.644;4.734;2022-12-10T16:20:00;2.40;99.90
17489;DHT22;8861;52.644;4.734;2022-12-10T16:22:36;2.40;99.90
17489;DHT22;8861;52.644;4.734;2022-12-10T16:25:04;2.40;99.90
17489;DHT22;8861;52.644;4.734;2022-12-10T16:27:31;2.40;99.90
17489;DHT22;8861;52.644;4.734;2022-12-10T16:30:00;2.40;99.90
17489;DHT22;8861;52.644;4.734;2022-12-10T16:32:29;2.40;99.90